Wetterstation Vordersexau
Wetterdaten: Woche 25.07.11 - 31.07.11 (KW30)
Datum Zeit Temp. A. Feuchte A. Luftdruck Regen Wind Richtung Taupunkt Windchill Windben
25.07.2011 00:00 12,1 C 82 % 1010,9 hPa 0,0 l/m 0,0 km/h NO 9,1 C 12,1 C 0,0 km/h
25.07.2011 01:00 11,4 C 83 % 1010,9 hPa 0,0 l/m 0,0 km/h NO 8,6 C 11,4 C 0,0 km/h
25.07.2011 02:00 11,3 C 84 % 1010,6 hPa 0,0 l/m 0,0 km/h SO 8,7 C 11,3 C 0,0 km/h
25.07.2011 03:00 11,6 C 85 % 1010,2 hPa 0,0 l/m 0,0 km/h O 9,2 C 11,6 C 0,0 km/h
25.07.2011 04:00 11,4 C 85 % 1010,0 hPa 0,0 l/m 0,0 km/h SO 9,0 C 11,4 C 0,0 km/h
25.07.2011 05:00 11,1 C 85 % 1009,8 hPa 0,0 l/m 0,0 km/h SO 8,7 C 11,1 C 0,0 km/h
25.07.2011 06:00 10,3 C 85 % 1009,8 hPa 0,0 l/m 0,0 km/h O 7,9 C 10,3 C 0,0 km/h
25.07.2011 07:00 11,9 C 85 % 1009,6 hPa 0,0 l/m 0,0 km/h N-NO 9,5 C 11,9 C 0,0 km/h
25.07.2011 08:00 22,6 C 62 % 1009,3 hPa 0,0 l/m 0,0 km/h W 14,9 C 22,6 C 0,0 km/h
25.07.2011 09:00 22,9 C 48 % 1009,3 hPa 0,0 l/m 9,7 km/h W-SW 11,3 C 21,9 C 5,4 km/h
25.07.2011 10:00 22,5 C 48 % 1009,2 hPa 0,0 l/m 15,6 km/h W-SW 10,9 C 20,2 C 8,6 km/h
25.07.2011 11:00 23,5 C 46 % 1009,0 hPa 0,0 l/m 17,5 km/h W-SW 11,2 C 21,1 C 9,7 km/h
25.07.2011 12:00 23,8 C 44 % 1008,8 hPa 0,0 l/m 16,2 km/h N-NW 10,8 C 21,7 C 9,0 km/h
25.07.2011 13:00 24,1 C 42 % 1008,4 hPa 0,0 l/m 1,9 km/h NW 10,4 C 24,1 C 1,1 km/h
25.07.2011 14:00 24,0 C 42 % 1008,4 hPa 0,0 l/m 14,3 km/h SW 10,3 C 22,2 C 7,9 km/h
25.07.2011 15:00 27,0 C 36 % 1008,1 hPa 0,0 l/m 10,4 km/h NW 10,6 C 26,3 C 5,8 km/h
25.07.2011 16:00 27,8 C 34 % 1007,5 hPa 0,0 l/m 0,0 km/h W 10,5 C 27,8 C 0,0 km/h
25.07.2011 17:00 25,2 C 37 % 1007,3 hPa 0,0 l/m 0,0 km/h W-SW 9,5 C 25,2 C 0,0 km/h
25.07.2011 18:00 27,3 C 34 % 1007,2 hPa 0,0 l/m 15,6 km/h W-NW 10,0 C 26,0 C 8,6 km/h
25.07.2011 19:00 23,9 C 40 % 1007,2 hPa 0,0 l/m 1,9 km/h N 9,5 C 23,9 C 1,1 km/h
25.07.2011 20:00 20,2 C 50 % 1007,6 hPa 0,0 l/m 0,0 km/h O 9,4 C 20,2 C 0,0 km/h
25.07.2011 21:00 16,2 C 67 % 1008,0 hPa 0,0 l/m 0,0 km/h S-SO 10,1 C 16,2 C 0,0 km/h
25.07.2011 22:00 13,8 C 74 % 1008,6 hPa 0,0 l/m 0,0 km/h S 9,2 C 13,8 C 0,0 km/h
25.07.2011 23:00 13,3 C 78 % 1008,9 hPa 0,0 l/m 0,0 km/h SO 9,5 C 13,3 C 0,0 km/h
26.07.2011 00:00 12,5 C 80 % 1009,0 hPa 0,0 l/m 14,9 km/h SO 9,1 C 8,2 C 8,3 km/h
26.07.2011 01:00 12,1 C 81 % 1008,8 hPa 0,0 l/m 0,0 km/h O-SO 8,9 C 12,1 C 0,0 km/h
26.07.2011 02:00 11,3 C 83 % 1008,7 hPa 0,0 l/m 0,0 km/h O-SO 8,5 C 11,3 C 0,0 km/h
26.07.2011 03:00 10,9 C 83 % 1008,9 hPa 0,0 l/m 0,0 km/h SO 8,1 C 10,9 C 0,0 km/h
26.07.2011 04:00 10,4 C 85 % 1008,9 hPa 0,0 l/m 0,0 km/h SO 8,0 C 10,4 C 0,0 km/h
26.07.2011 05:00 10,4 C 85 % 1008,9 hPa 0,0 l/m 0,0 km/h O-SO 8,0 C 10,4 C 0,0 km/h
26.07.2011 06:00 11,3 C 84 % 1008,9 hPa 0,0 l/m 5,8 km/h SO 8,7 C 11,3 C 3,2 km/h
26.07.2011 07:00 12,8 C 82 % 1009,3 hPa 0,0 l/m 7,1 km/h SO 9,8 C 12,4 C 4,0 km/h
26.07.2011 08:00 15,3 C 78 % 1009,4 hPa 0,0 l/m 0,0 km/h SO 11,5 C 15,3 C 0,0 km/h
26.07.2011 09:00 19,1 C 71 % 1009,8 hPa 0,0 l/m 2,6 km/h W-NW 13,7 C 19,1 C 1,4 km/h
26.07.2011 10:00 21,2 C 61 % 1009,9 hPa 0,0 l/m 0,0 km/h S 13,4 C 21,2 C 0,0 km/h
26.07.2011 11:00 26,2 C 53 % 1010,0 hPa 0,0 l/m 0,0 km/h W 15,8 C 26,2 C 0,0 km/h
26.07.2011 12:00 26,1 C 51 % 1009,7 hPa 0,0 l/m 0,0 km/h S-SO 15,2 C 26,1 C 0,0 km/h
26.07.2011 13:00 24,9 C 53 % 1009,7 hPa 0,0 l/m 0,0 km/h S-SO 14,6 C 24,9 C 0,0 km/h
26.07.2011 14:00 22,5 C 57 % 1010,1 hPa 0,0 l/m 7,8 km/h S-SO 13,5 C 22,0 C 4,3 km/h
26.07.2011 15:00 24,0 C 53 % 1010,1 hPa 0,0 l/m 0,0 km/h SW 13,8 C 24,0 C 0,0 km/h
26.07.2011 16:00 16,5 C 77 % 1011,3 hPa 1,8 l/m 25,3 km/h O-NO 12,5 C 10,6 C 14,0 km/h
26.07.2011 17:00 15,6 C 84 % 1011,3 hPa 7,1 l/m 0,0 km/h O 12,9 C 15,6 C 0,0 km/h
26.07.2011 18:00 18,4 C 77 % 1011,5 hPa 0,0 l/m 0,0 km/h O-SO 14,3 C 18,4 C 0,0 km/h
26.07.2011 19:00 16,2 C 83 % 1012,0 hPa 0,4 l/m 2,6 km/h NO 13,3 C 16,2 C 1,4 km/h
26.07.2011 20:00 15,5 C 84 % 1012,2 hPa 0,0 l/m 0,0 km/h NO 12,8 C 15,5 C 0,0 km/h
26.07.2011 21:00 14,9 C 84 % 1012,6 hPa 0,0 l/m 0,0 km/h SO 12,2 C 14,9 C 0,0 km/h
26.07.2011 22:00 14,7 C 84 % 1013,3 hPa 0,0 l/m 0,6 km/h NO 12,0 C 14,7 C 0,4 km/h
26.07.2011 23:00 14,4 C 84 % 1013,6 hPa 0,0 l/m 0,0 km/h SO 11,7 C 14,4 C 0,0 km/h
27.07.2011 00:00 14,4 C 83 % 1013,7 hPa 0,0 l/m 0,0 km/h SO 11,5 C 14,4 C 0,0 km/h
27.07.2011 01:00 14,4 C 84 % 1013,9 hPa 0,0 l/m 0,0 km/h S-SO 11,7 C 14,4 C 0,0 km/h
27.07.2011 02:00 13,9 C 84 % 1013,8 hPa 0,0 l/m 0,0 km/h O 11,2 C 13,9 C 0,0 km/h
27.07.2011 03:00 14,2 C 83 % 1013,8 hPa 0,0 l/m 0,0 km/h SO 11,4 C 14,2 C 0,0 km/h
27.07.2011 04:00 14,1 C 83 % 1013,9 hPa 0,0 l/m 0,0 km/h O 11,3 C 14,1 C 0,0 km/h
27.07.2011 05:00 14,1 C 83 % 1014,1 hPa 0,0 l/m 0,0 km/h O 11,3 C 14,1 C 0,0 km/h
27.07.2011 06:00 14,1 C 83 % 1014,3 hPa 0,0 l/m 0,0 km/h S-SO 11,3 C 14,1 C 0,0 km/h
27.07.2011 07:00 15,1 C 83 % 1014,8 hPa 0,0 l/m 0,0 km/h O-NO 12,2 C 15,1 C 0,0 km/h
27.07.2011 08:00 16,9 C 85 % 1014,9 hPa 0,0 l/m 0,0 km/h S-SW 14,4 C 16,9 C 0,0 km/h
27.07.2011 09:00 21,0 C 76 % 1014,9 hPa 0,0 l/m 0,0 km/h W 16,6 C 21,0 C 0,0 km/h
27.07.2011 10:00 24,4 C 62 % 1014,9 hPa 0,0 l/m 0,0 km/h W 16,6 C 24,4 C 0,0 km/h
27.07.2011 11:00 24,5 C 58 % 1015,1 hPa 0,0 l/m 0,0 km/h W 15,7 C 24,5 C 0,0 km/h
27.07.2011 12:00 22,8 C 65 % 1015,1 hPa 0,0 l/m 0,0 km/h NW 15,9 C 22,8 C 0,0 km/h
27.07.2011 13:00 25,5 C 57 % 1014,5 hPa 0,0 l/m 0,0 km/h W 16,3 C 25,5 C 0,0 km/h
27.07.2011 14:00 26,4 C 50 % 1014,3 hPa 0,0 l/m 0,0 km/h W-NW 15,1 C 26,4 C 0,0 km/h
27.07.2011 15:00 27,4 C 50 % 1013,9 hPa 0,0 l/m 0,0 km/h W 16,0 C 27,4 C 0,0 km/h
27.07.2011 16:00 30,5 C 42 % 1013,7 hPa 0,0 l/m 1,9 km/h N-NW 16,1 C 30,5 C 1,1 km/h
27.07.2011 17:00 26,3 C 50 % 1013,8 hPa 0,0 l/m 19,4 km/h NW 15,0 C 24,4 C 10,8 km/h
27.07.2011 18:00 22,8 C 57 % 1014,3 hPa 0,0 l/m 4,5 km/h NO 13,8 C 22,8 C 2,5 km/h
27.07.2011 19:00 18,8 C 70 % 1015,5 hPa 0,0 l/m 0,0 km/h S-SO 13,2 C 18,8 C 0,0 km/h
27.07.2011 20:00 17,5 C 80 % 1015,2 hPa 0,4 l/m 9,1 km/h O 14,0 C 16,2 C 5,0 km/h
27.07.2011 21:00 16,0 C 83 % 1015,6 hPa 0,0 l/m 0,0 km/h O-NO 13,1 C 16,0 C 0,0 km/h
27.07.2011 22:00 15,4 C 84 % 1015,9 hPa 0,0 l/m 0,0 km/h O-SO 12,7 C 15,4 C 0,0 km/h
27.07.2011 23:00 15,3 C 85 % 1016,1 hPa 0,0 l/m 0,0 km/h NO 12,8 C 15,3 C 0,0 km/h
28.07.2011 00:00 14,9 C 85 % 1016,5 hPa 0,0 l/m 0,0 km/h NO 12,4 C 14,9 C 0,0 km/h
28.07.2011 01:00 13,9 C 85 % 1016,4 hPa 0,0 l/m 0,0 km/h O 11,4 C 13,9 C 0,0 km/h
28.07.2011 02:00 13,9 C 84 % 1016,5 hPa 0,0 l/m 0,0 km/h SO 11,2 C 13,9 C 0,0 km/h
28.07.2011 03:00 13,3 C 85 % 1016,6 hPa 0,0 l/m 0,0 km/h NO 10,8 C 13,3 C 0,0 km/h
28.07.2011 04:00 13,5 C 84 % 1016,3 hPa 0,0 l/m 0,0 km/h O-NO 10,8 C 13,5 C 0,0 km/h
28.07.2011 05:00 13,5 C 84 % 1016,6 hPa 0,0 l/m 0,0 km/h NO 10,8 C 13,5 C 0,0 km/h
28.07.2011 06:00 13,8 C 84 % 1016,4 hPa 0,0 l/m 0,0 km/h SO 11,1 C 13,8 C 0,0 km/h
28.07.2011 07:00 15,8 C 85 % 1016,6 hPa 0,0 l/m 0,0 km/h SO 13,3 C 15,8 C 0,0 km/h
28.07.2011 08:00 17,1 C 83 % 1016,6 hPa 0,0 l/m 6,5 km/h W 14,2 C 17,1 C 3,6 km/h
28.07.2011 09:00 23,5 C 66 % 1016,6 hPa 0,0 l/m 0,0 km/h NO 16,8 C 23,5 C 0,0 km/h
28.07.2011 10:00 26,9 C 54 % 1016,6 hPa 0,0 l/m 0,0 km/h W 16,8 C 26,9 C 0,0 km/h
28.07.2011 11:00 28,4 C 48 % 1016,4 hPa 0,0 l/m 0,0 km/h W-SW 16,3 C 28,4 C 0,0 km/h
28.07.2011 12:00 23,7 C 54 % 1016,2 hPa 0,0 l/m 0,0 km/h N-NO 13,8 C 23,7 C 0,0 km/h
28.07.2011 13:00 28,9 C 48 % 1015,9 hPa 0,0 l/m 0,0 km/h O 16,8 C 28,9 C 0,0 km/h
28.07.2011 14:00 27,9 C 44 % 1015,6 hPa 0,0 l/m 0,0 km/h N-NO 14,5 C 27,9 C 0,0 km/h
28.07.2011 15:00 25,9 C 51 % 1015,4 hPa 0,0 l/m 3,9 km/h NW 15,0 C 25,9 C 2,2 km/h
28.07.2011 16:00 28,8 C 47 % 1015,2 hPa 0,0 l/m 16,8 km/h W-NW 16,3 C 27,8 C 9,4 km/h
28.07.2011 17:00 31,3 C 39 % 1015,2 hPa 0,0 l/m 13,6 km/h N-NO 15,7 C 31,0 C 7,6 km/h
28.07.2011 18:00 25,9 C 45 % 1015,3 hPa 0,0 l/m 0,0 km/h NO 13,0 C 25,9 C 0,0 km/h
28.07.2011 19:00 22,9 C 55 % 1015,5 hPa 0,0 l/m 0,0 km/h N-NO 13,4 C 22,9 C 0,0 km/h
28.07.2011 20:00 21,8 C 59 % 1016,0 hPa 0,0 l/m 0,0 km/h SO 13,4 C 21,8 C 0,0 km/h
28.07.2011 21:00 18,8 C 74 % 1016,4 hPa 0,0 l/m 0,0 km/h O-NO 14,1 C 18,8 C 0,0 km/h
28.07.2011 22:00 16,9 C 78 % 1017,0 hPa 0,0 l/m 0,0 km/h O-NO 13,0 C 16,9 C 0,0 km/h
28.07.2011 23:00 15,9 C 81 % 1017,4 hPa 0,0 l/m 0,0 km/h O-SO 12,6 C 15,9 C 0,0 km/h
29.07.2011 00:00 15,1 C 83 % 1017,5 hPa 0,0 l/m 0,0 km/h O-SO 12,2 C 15,1 C 0,0 km/h
29.07.2011 01:00 13,9 C 85 % 1017,4 hPa 0,0 l/m 0,0 km/h SO 11,4 C 13,9 C 0,0 km/h
29.07.2011 02:00 13,4 C 85 % 1017,1 hPa 0,0 l/m 0,0 km/h SO 10,9 C 13,4 C 0,0 km/h
29.07.2011 03:00 13,2 C 84 % 1017,2 hPa 0,0 l/m 0,0 km/h O-NO 10,6 C 13,2 C 0,0 km/h
29.07.2011 04:00 12,9 C 84 % 1016,9 hPa 0,0 l/m 0,0 km/h O 10,3 C 12,9 C 0,0 km/h
29.07.2011 05:00 12,1 C 84 % 1017,2 hPa 0,0 l/m 0,0 km/h O-NO 9,5 C 12,1 C 0,0 km/h
29.07.2011 06:00 11,9 C 84 % 1017,1 hPa 0,0 l/m 0,0 km/h SO 9,3 C 11,9 C 0,0 km/h
29.07.2011 07:00 13,1 C 83 % 1017,5 hPa 0,0 l/m 0,0 km/h O 10,3 C 13,1 C 0,0 km/h
29.07.2011 08:00 20,4 C 74 % 1017,3 hPa 0,0 l/m 0,0 km/h W-NW 15,6 C 20,4 C 0,0 km/h
29.07.2011 09:00 25,4 C 57 % 1017,0 hPa 0,0 l/m 0,0 km/h W 16,2 C 25,4 C 0,0 km/h
29.07.2011 10:00 26,8 C 53 % 1016,6 hPa 0,0 l/m 0,0 km/h SO 16,4 C 26,8 C 0,0 km/h
29.07.2011 11:00 27,7 C 51 % 1016,5 hPa 0,0 l/m 0,0 km/h N-NO 16,6 C 27,7 C 0,0 km/h
29.07.2011 12:00 26,4 C 49 % 1016,0 hPa 0,0 l/m 7,8 km/h NW 14,8 C 26,1 C 4,3 km/h
29.07.2011 13:00 27,9 C 49 % 1015,4 hPa 0,0 l/m 0,0 km/h W-SW 16,2 C 27,9 C 0,0 km/h
29.07.2011 14:00 27,6 C 46 % 1015,3 hPa 0,0 l/m 2,6 km/h NW 14,9 C 27,6 C 1,4 km/h
29.07.2011 15:00 29,0 C 39 % 1015,2 hPa 0,0 l/m 3,2 km/h N-NO 13,6 C 29,0 C 1,8 km/h
29.07.2011 16:00 26,6 C 51 % 1015,1 hPa 0,0 l/m 4,5 km/h N-NW 15,6 C 26,6 C 2,5 km/h
29.07.2011 17:00 27,6 C 45 % 1015,2 hPa 0,0 l/m 5,2 km/h W-NW 14,6 C 27,6 C 2,9 km/h
29.07.2011 18:00 22,2 C 59 % 1014,9 hPa 0,0 l/m 0,0 km/h W-NW 13,8 C 22,2 C 0,0 km/h
29.07.2011 19:00 21,4 C 66 % 1014,8 hPa 0,0 l/m 0,0 km/h W-NW 14,8 C 21,4 C 0,0 km/h
29.07.2011 20:00 21,5 C 67 % 1015,0 hPa 0,0 l/m 0,0 km/h NW 15,1 C 21,5 C 0,0 km/h
29.07.2011 21:00 18,8 C 76 % 1015,4 hPa 0,0 l/m 0,0 km/h SW 14,5 C 18,8 C 0,0 km/h
29.07.2011 22:00 17,8 C 81 % 1015,4 hPa 0,0 l/m 0,0 km/h SO 14,5 C 17,8 C 0,0 km/h
29.07.2011 23:00 17,4 C 82 % 1015,8 hPa 0,0 l/m 0,0 km/h W-NW 14,3 C 17,4 C 0,0 km/h
30.07.2011 00:00 17,5 C 82 % 1016,0 hPa 0,0 l/m 0,0 km/h W 14,4 C 17,5 C 0,0 km/h
30.07.2011 01:00 16,4 C 83 % 1015,9 hPa 0,0 l/m 7,1 km/h W-SW 13,5 C 16,0 C 4,0 km/h
30.07.2011 02:00 14,9 C 84 % 1015,5 hPa 0,0 l/m 0,0 km/h W 12,2 C 14,9 C 0,0 km/h
30.07.2011 03:00 15,0 C 85 % 1015,7 hPa 0,0 l/m 0,0 km/h W-SW 12,5 C 15,0 C 0,0 km/h
30.07.2011 04:00 14,8 C 85 % 1015,0 hPa 0,0 l/m 0,0 km/h W 12,3 C 14,8 C 0,0 km/h
30.07.2011 05:00 14,7 C 85 % 1014,8 hPa 0,0 l/m 0,0 km/h W 12,2 C 14,7 C 0,0 km/h
30.07.2011 06:00 14,7 C 85 % 1014,8 hPa 0,0 l/m 0,0 km/h W-SW 12,2 C 14,7 C 0,0 km/h
30.07.2011 07:00 14,8 C 85 % 1015,1 hPa 0,0 l/m 0,0 km/h W-SW 12,3 C 14,8 C 0,0 km/h
30.07.2011 08:00 16,5 C 84 % 1015,3 hPa 0,0 l/m 4,5 km/h SW 13,8 C 16,5 C 2,5 km/h
30.07.2011 09:00 17,6 C 79 % 1015,6 hPa 0,0 l/m 0,0 km/h NW 13,9 C 17,6 C 0,0 km/h
30.07.2011 10:00 19,8 C 71 % 1015,5 hPa 0,0 l/m 1,3 km/h NO 14,4 C 19,8 C 0,7 km/h
30.07.2011 11:00 24,3 C 53 % 1015,5 hPa 0,0 l/m 1,3 km/h N-NO 14,1 C 24,3 C 0,7 km/h
30.07.2011 12:00 21,7 C 53 % 1015,2 hPa 0,0 l/m 1,3 km/h N-NO 11,7 C 21,7 C 0,7 km/h
30.07.2011 13:00 26,1 C 46 % 1015,4 hPa 0,0 l/m 15,6 km/h NO 13,6 C 24,6 C 8,6 km/h
30.07.2011 14:00 24,1 C 48 % 1015,2 hPa 0,0 l/m 0,0 km/h W-NW 12,4 C 24,1 C 0,0 km/h
30.07.2011 15:00 27,3 C 43 % 1015,1 hPa 0,0 l/m 11,0 km/h N-NO 13,6 C 26,6 C 6,1 km/h
30.07.2011 16:00 23,9 C 48 % 1014,9 hPa 0,0 l/m 0,0 km/h NO 12,2 C 23,9 C 0,0 km/h
30.07.2011 17:00 27,1 C 41 % 1014,8 hPa 0,0 l/m 0,0 km/h N-NW 12,7 C 27,1 C 0,0 km/h
30.07.2011 18:00 27,2 C 40 % 1014,7 hPa 0,0 l/m 1,9 km/h N-NO 12,4 C 27,2 C 1,1 km/h
30.07.2011 19:00 24,3 C 45 % 1014,8 hPa 0,0 l/m 15,6 km/h O-SO 11,6 C 22,4 C 8,6 km/h
30.07.2011 20:00 18,6 C 60 % 1015,1 hPa 0,0 l/m 1,3 km/h O-NO 10,7 C 18,6 C 0,7 km/h
30.07.2011 21:00 15,6 C 68 % 1015,5 hPa 0,0 l/m 0,0 km/h O 9,7 C 15,6 C 0,0 km/h
30.07.2011 22:00 13,9 C 77 % 1015,8 hPa 0,0 l/m 0,0 km/h O-SO 9,9 C 13,9 C 0,0 km/h
30.07.2011 23:00 12,8 C 81 % 1016,3 hPa 0,0 l/m 0,0 km/h NO 9,6 C 12,8 C 0,0 km/h
31.07.2011 00:00 12,1 C 83 % 1015,9 hPa 0,0 l/m 0,0 km/h NO 9,3 C 12,1 C 0,0 km/h
31.07.2011 01:00 11,0 C 84 % 1015,8 hPa 0,0 l/m 0,0 km/h O-NO 8,4 C 11,0 C 0,0 km/h
31.07.2011 02:00 10,4 C 85 % 1015,4 hPa 0,0 l/m 0,0 km/h SO 8,0 C 10,4 C 0,0 km/h
31.07.2011 03:00 10,0 C 85 % 1015,3 hPa 0,0 l/m 0,0 km/h NO 7,6 C 10,0 C 0,0 km/h
31.07.2011 04:00 9,3 C 85 % 1014,8 hPa 0,0 l/m 0,0 km/h O-SO 6,9 C 9,3 C 0,0 km/h
31.07.2011 05:00 8,9 C 85 % 1014,8 hPa 0,0 l/m 0,0 km/h O-NO 6,5 C 8,9 C 0,0 km/h
31.07.2011 06:00 8,7 C 85 % 1014,6 hPa 0,0 l/m 0,0 km/h O-NO 6,3 C 8,7 C 0,0 km/h
31.07.2011 07:00 10,1 C 85 % 1014,7 hPa 0,0 l/m 0,0 km/h SW 7,7 C 10,1 C 0,0 km/h
31.07.2011 08:00 19,4 C 68 % 1014,9 hPa 0,0 l/m 0,0 km/h W 13,3 C 19,4 C 0,0 km/h
31.07.2011 09:00 22,1 C 58 % 1015,0 hPa 0,0 l/m 1,3 km/h NW 13,4 C 22,1 C 0,7 km/h
31.07.2011 10:00 23,8 C 52 % 1014,9 hPa 0,0 l/m 9,7 km/h N 13,3 C 22,9 C 5,4 km/h
31.07.2011 11:00 24,5 C 48 % 1014,6 hPa 0,0 l/m 16,8 km/h W 12,8 C 22,4 C 9,4 km/h
31.07.2011 12:00 21,7 C 56 % 1014,6 hPa 0,0 l/m 13,0 km/h N 12,5 C 19,7 C 7,2 km/h
31.07.2011 13:00 24,2 C 49 % 1014,5 hPa 0,0 l/m 4,5 km/h NW 12,8 C 24,2 C 2,5 km/h
31.07.2011 14:00 25,3 C 49 % 1014,0 hPa 0,0 l/m 14,9 km/h N-NW 13,8 C 23,7 C 8,3 km/h
31.07.2011 15:00 23,0 C 50 % 1014,0 hPa 0,0 l/m 8,4 km/h NW 12,0 C 22,4 C 4,7 km/h
31.07.2011 16:00 23,7 C 49 % 1013,8 hPa 0,0 l/m 0,0 km/h N-NO 12,3 C 23,7 C 0,0 km/h
31.07.2011 17:00 22,3 C 54 % 1013,5 hPa 0,0 l/m 0,0 km/h NO 12,5 C 22,3 C 0,0 km/h
31.07.2011 18:00 21,5 C 56 % 1013,5 hPa 0,0 l/m 0,0 km/h N 12,3 C 21,5 C 0,0 km/h
31.07.2011 19:00 22,9 C 51 % 1013,5 hPa 0,0 l/m 3,9 km/h N-NO 12,2 C 22,9 C 2,2 km/h
31.07.2011 20:00 18,9 C 61 % 1013,9 hPa 0,0 l/m 6,5 km/h N-NO 11,2 C 18,9 C 3,6 km/h
31.07.2011 21:00 16,1 C 70 % 1014,0 hPa 0,0 l/m 0,0 km/h NO 10,6 C 16,1 C 0,0 km/h
31.07.2011 22:00 14,1 C 76 % 1014,5 hPa 0,0 l/m 0,0 km/h N-NO 9,9 C 14,1 C 0,0 km/h
31.07.2011 23:00 12,2 C 81 % 1014,6 hPa 0,0 l/m 0,0 km/h N-NO 9,0 C 12,2 C 0,0 km/h
Min-Datum _ 31.07.11 25.07.11 25.07.11 - 25.07.11 - 31.07.11 26.07.11 25.07.11
_ Min-Zeit 06:30 16:30 18:30 - 00:30 - 06:30 00:30 00:30
Minimum _ 8,7 C 34 % 1007,2 hPa - 0,0 km/h - 6,3 C 8,2 C 0,0 km/h
Max-Datum _ 28.07.11 25.07.11 29.07.11 26.07.11 26.07.11 - 28.07.11 28.07.11 26.07.11
_ Max-Zeit 17:30 03:30 00:30 17:30 16:30 - 10:30 17:30 16:30
Maximum _ 31,3 C 85 % 1017,5 hPa 7,1 l/m 25,3 km/h
O-NO
- 16,8 C 31,0 C 14,0 km/h
O-NO
Durchschnitt _ 18,9 C 68 % 1013,7 hPa #9,6 l/m 2,4 km/h SO 12,2 C 18,7 C 1,4 km/h
www.sexauwetter.de